sensor_id;sensor_type;location;lat;lon;timestamp;pressure;altitude;pressure_sealevel;temperature;humidity
36248;BME280;22287;50.824;5.644;2023-03-14T00:00:11;98387.28;;;11.10;77.90
36248;BME280;22287;50.824;5.644;2023-03-14T00:02:40;98380.53;;;10.85;79.07
36248;BME280;22287;50.824;5.644;2023-03-14T00:05:08;98393.47;;;10.75;79.31
36248;BME280;22287;50.824;5.644;2023-03-14T00:07:36;98400.59;;;10.46;79.76
36248;BME280;22287;50.824;5.644;2023-03-14T00:10:06;98398.75;;;10.97;78.15
36248;BME280;22287;50.824;5.644;2023-03-14T00:12:33;98410.84;;;10.66;79.20
36248;BME280;22287;50.824;5.644;2023-03-14T00:15:00;98418.72;;;10.52;80.58
36248;BME280;22287;50.824;5.644;2023-03-14T00:17:30;98427.84;;;11.10;78.40
36248;BME280;22287;50.824;5.644;2023-03-14T00:19:57;98425.88;;;11.04;78.36
36248;BME280;22287;50.824;5.644;2023-03-14T00:22:31;98427.97;;;10.73;79.70
36248;BME280;22287;50.824;5.644;2023-03-14T00:24:59;98422.97;;;11.05;78.90
36248;BME280;22287;50.824;5.644;2023-03-14T00:27:26;98417.19;;;11.08;79.45
36248;BME280;22287;50.824;5.644;2023-03-14T00:29:53;98422.91;;;10.99;79.38
36248;BME280;22287;50.824;5.644;2023-03-14T00:32:19;98423.66;;;10.93;79.29
36248;BME280;22287;50.824;5.644;2023-03-14T00:34:46;98432.50;;;10.87;80.07
36248;BME280;22287;50.824;5.644;2023-03-14T00:37:13;98425.72;;;10.61;80.78
36248;BME280;22287;50.824;5.644;2023-03-14T00:39:42;98427.09;;;11.01;79.36
36248;BME280;22287;50.824;5.644;2023-03-14T00:42:09;98433.38;;;11.23;77.57
36248;BME280;22287;50.824;5.644;2023-03-14T00:44:37;98432.03;;;10.98;79.04
36248;BME280;22287;50.824;5.644;2023-03-14T00:47:06;98439.41;;;10.75;79.47
36248;BME280;22287;50.824;5.644;2023-03-14T00:49:33;98434.22;;;10.73;79.81
36248;BME280;22287;50.824;5.644;2023-03-14T00:52:00;98434.69;;;10.77;79.80
36248;BME280;22287;50.824;5.644;2023-03-14T00:54:27;98435.97;;;10.51;80.77
36248;BME280;22287;50.824;5.644;2023-03-14T00:56:55;98430.28;;;10.76;80.02
36248;BME280;22287;50.824;5.644;2023-03-14T00:59:22;98431.59;;;10.80;79.40
36248;BME280;22287;50.824;5.644;2023-03-14T01:01:49;98424.63;;;10.85;78.85
36248;BME280;22287;50.824;5.644;2023-03-14T01:04:16;98414.81;;;10.84;78.74
36248;BME280;22287;50.824;5.644;2023-03-14T01:06:44;98405.50;;;10.87;78.07
36248;BME280;22287;50.824;5.644;2023-03-14T01:09:11;98396.38;;;10.88;78.19
36248;BME280;22287;50.824;5.644;2023-03-14T01:11:38;98380.44;;;10.63;78.97
36248;BME280;22287;50.824;5.644;2023-03-14T01:14:04;98372.22;;;10.86;78.64
36248;BME280;22287;50.824;5.644;2023-03-14T01:16:34;98366.78;;;11.37;75.94
36248;BME280;22287;50.824;5.644;2023-03-14T01:19:02;98364.25;;;10.63;78.17
36248;BME280;22287;50.824;5.644;2023-03-14T01:21:33;98365.56;;;10.38;79.33
36248;BME280;22287;50.824;5.644;2023-03-14T01:24:01;98360.81;;;10.55;79.08
36248;BME280;22287;50.824;5.644;2023-03-14T01:26:31;98360.25;;;10.74;78.37
36248;BME280;22287;50.824;5.644;2023-03-14T01:28:59;98363.47;;;11.20;76.33
36248;BME280;22287;50.824;5.644;2023-03-14T01:31:27;98354.38;;;10.71;77.95
36248;BME280;22287;50.824;5.644;2023-03-14T01:33:54;98348.16;;;10.55;78.97
36248;BME280;22287;50.824;5.644;2023-03-14T01:36:21;98354.91;;;10.81;78.28
36248;BME280;22287;50.824;5.644;2023-03-14T01:38:50;98361.00;;;10.53;79.23
36248;BME280;22287;50.824;5.644;2023-03-14T01:41:25;98350.97;;;10.47;78.88
36248;BME280;22287;50.824;5.644;2023-03-14T01:43:54;98340.44;;;10.52;79.14
36248;BME280;22287;50.824;5.644;2023-03-14T01:46:26;98346.28;;;10.71;78.26
36248;BME280;22287;50.824;5.644;2023-03-14T01:49:05;98345.19;;;10.36;78.71
36248;BME280;22287;50.824;5.644;2023-03-14T01:54:27;98345.00;;;10.37;79.64
36248;BME280;22287;50.824;5.644;2023-03-14T01:59:31;98332.22;;;10.60;78.47
36248;BME280;22287;50.824;5.644;2023-03-14T02:02:00;98331.78;;;11.35;74.87
36248;BME280;22287;50.824;5.644;2023-03-14T02:04:32;98332.19;;;11.11;75.81
36248;BME280;22287;50.824;5.644;2023-03-14T02:07:20;98334.88;;;11.11;75.83
36248;BME280;22287;50.824;5.644;2023-03-14T02:10:12;98338.78;;;10.87;77.66
36248;BME280;22287;50.824;5.644;2023-03-14T02:12:42;98329.00;;;10.86;77.33
36248;BME280;22287;50.824;5.644;2023-03-14T02:15:20;98328.00;;;10.73;78.35
36248;BME280;22287;50.824;5.644;2023-03-14T02:17:56;98326.09;;;10.52;79.35
36248;BME280;22287;50.824;5.644;2023-03-14T02:20:47;98317.72;;;10.83;78.35
36248;BME280;22287;50.824;5.644;2023-03-14T02:23:18;98325.28;;;10.22;80.51
36248;BME280;22287;50.824;5.644;2023-03-14T02:28:46;98326.84;;;10.46;80.87
36248;BME280;22287;50.824;5.644;2023-03-14T02:31:13;98325.53;;;10.56;80.08
36248;BME280;22287;50.824;5.644;2023-03-14T02:33:41;98328.16;;;10.86;79.53
36248;BME280;22287;50.824;5.644;2023-03-14T02:36:11;98330.91;;;9.98;83.59
36248;BME280;22287;50.824;5.644;2023-03-14T02:39:14;98333.75;;;10.19;83.22
36248;BME280;22287;50.824;5.644;2023-03-14T02:41:43;98323.34;;;10.16;83.96
36248;BME280;22287;50.824;5.644;2023-03-14T02:44:12;98313.41;;;10.52;82.67
36248;BME280;22287;50.824;5.644;2023-03-14T02:46:53;98317.91;;;10.96;79.76
36248;BME280;22287;50.824;5.644;2023-03-14T02:49:20;98310.53;;;10.69;80.58
36248;BME280;22287;50.824;5.644;2023-03-14T02:51:47;98293.31;;;11.12;79.94
36248;BME280;22287;50.824;5.644;2023-03-14T02:54:15;98305.34;;;11.09;79.35
36248;BME280;22287;50.824;5.644;2023-03-14T02:56:43;98305.41;;;11.16;79.28
36248;BME280;22287;50.824;5.644;2023-03-14T02:59:12;98298.56;;;11.41;78.14
36248;BME280;22287;50.824;5.644;2023-03-14T03:01:49;98293.81;;;11.22;79.41
36248;BME280;22287;50.824;5.644;2023-03-14T03:04:16;98291.97;;;11.23;78.21
36248;BME280;22287;50.824;5.644;2023-03-14T03:06:45;98287.00;;;11.05;79.42
36248;BME280;22287;50.824;5.644;2023-03-14T03:09:13;98284.28;;;11.05;79.71
36248;BME280;22287;50.824;5.644;2023-03-14T03:11:40;98285.81;;;10.72;81.00
36248;BME280;22287;50.824;5.644;2023-03-14T03:14:09;98289.56;;;10.71;81.29
36248;BME280;22287;50.824;5.644;2023-03-14T03:16:36;98285.91;;;10.78;81.83
36248;BME280;22287;50.824;5.644;2023-03-14T03:19:03;98273.19;;;10.93;80.46
36248;BME280;22287;50.824;5.644;2023-03-14T03:21:30;98278.00;;;10.98;80.58
36248;BME280;22287;50.824;5.644;2023-03-14T03:24:16;98274.91;;;11.01;80.13
36248;BME280;22287;50.824;5.644;2023-03-14T03:26:44;98257.81;;;11.15;79.12
36248;BME280;22287;50.824;5.644;2023-03-14T03:29:11;98265.97;;;11.00;80.30
36248;BME280;22287;50.824;5.644;2023-03-14T03:31:38;98262.44;;;11.21;79.33
36248;BME280;22287;50.824;5.644;2023-03-14T03:34:06;98268.22;;;10.97;80.36
36248;BME280;22287;50.824;5.644;2023-03-14T03:36:33;98270.41;;;11.08;79.79
36248;BME280;22287;50.824;5.644;2023-03-14T03:39:00;98268.47;;;11.23;78.69
36248;BME280;22287;50.824;5.644;2023-03-14T03:41:29;98259.25;;;10.39;82.86
36248;BME280;22287;50.824;5.644;2023-03-14T03:43:56;98262.53;;;10.71;82.96
36248;BME280;22287;50.824;5.644;2023-03-14T03:46:23;98258.63;;;10.94;80.74
36248;BME280;22287;50.824;5.644;2023-03-14T03:48:58;98263.31;;;10.65;82.06
36248;BME280;22287;50.824;5.644;2023-03-14T03:51:26;98259.00;;;10.70;82.27
36248;BME280;22287;50.824;5.644;2023-03-14T03:53:56;98261.06;;;10.89;80.98
36248;BME280;22287;50.824;5.644;2023-03-14T03:56:28;98250.75;;;10.57;82.00
36248;BME280;22287;50.824;5.644;2023-03-14T03:58:54;98253.34;;;11.07;79.74
36248;BME280;22287;50.824;5.644;2023-03-14T04:01:23;98247.88;;;11.50;77.63
36248;BME280;22287;50.824;5.644;2023-03-14T04:03:53;98252.34;;;10.51;81.32
36248;BME280;22287;50.824;5.644;2023-03-14T04:06:21;98250.41;;;10.45;82.93
36248;BME280;22287;50.824;5.644;2023-03-14T04:08:50;98249.16;;;10.84;81.11
36248;BME280;22287;50.824;5.644;2023-03-14T04:11:29;98247.47;;;10.61;81.80
36248;BME280;22287;50.824;5.644;2023-03-14T04:14:15;98254.50;;;10.41;82.38
36248;BME280;22287;50.824;5.644;2023-03-14T04:16:43;98244.91;;;10.75;81.64
36248;BME280;22287;50.824;5.644;2023-03-14T04:19:15;98248.13;;;10.63;81.48
36248;BME280;22287;50.824;5.644;2023-03-14T04:21:42;98250.50;;;10.52;81.44
36248;BME280;22287;50.824;5.644;2023-03-14T04:24:13;98253.41;;;10.36;82.41
36248;BME280;22287;50.824;5.644;2023-03-14T04:26:42;98249.91;;;10.21;83.57
36248;BME280;22287;50.824;5.644;2023-03-14T04:29:10;98245.41;;;10.63;82.25
36248;BME280;22287;50.824;5.644;2023-03-14T04:31:39;98249.22;;;10.33;82.88
36248;BME280;22287;50.824;5.644;2023-03-14T04:34:06;98236.28;;;10.43;83.32
36248;BME280;22287;50.824;5.644;2023-03-14T04:36:37;98242.56;;;10.50;82.94
36248;BME280;22287;50.824;5.644;2023-03-14T04:39:09;98233.34;;;10.59;82.27
36248;BME280;22287;50.824;5.644;2023-03-14T04:41:40;98240.25;;;10.47;83.27
36248;BME280;22287;50.824;5.644;2023-03-14T04:44:09;98241.13;;;10.33;84.43
36248;BME280;22287;50.824;5.644;2023-03-14T04:46:36;98251.13;;;10.18;85.56
36248;BME280;22287;50.824;5.644;2023-03-14T04:49:05;98248.78;;;10.15;85.62
36248;BME280;22287;50.824;5.644;2023-03-14T04:51:32;98244.41;;;10.29;84.40
36248;BME280;22287;50.824;5.644;2023-03-14T04:53:59;98238.59;;;10.46;83.18
36248;BME280;22287;50.824;5.644;2023-03-14T04:56:26;98234.31;;;10.08;84.78
36248;BME280;22287;50.824;5.644;2023-03-14T04:58:54;98231.31;;;10.47;83.36
36248;BME280;22287;50.824;5.644;2023-03-14T05:01:21;98227.09;;;10.59;82.38
36248;BME280;22287;50.824;5.644;2023-03-14T05:04:18;98230.25;;;10.27;83.15
36248;BME280;22287;50.824;5.644;2023-03-14T05:06:55;98229.78;;;10.23;83.67
36248;BME280;22287;50.824;5.644;2023-03-14T05:09:34;98217.53;;;9.77;85.63
36248;BME280;22287;50.824;5.644;2023-03-14T05:12:01;98213.06;;;10.13;85.51
36248;BME280;22287;50.824;5.644;2023-03-14T05:14:47;98217.50;;;10.56;81.93
36248;BME280;22287;50.824;5.644;2023-03-14T05:17:27;98212.06;;;10.92;80.62
36248;BME280;22287;50.824;5.644;2023-03-14T05:20:10;98207.38;;;10.80;80.47
36248;BME280;22287;50.824;5.644;2023-03-14T05:22:53;98201.91;;;10.73;81.41
36248;BME280;22287;50.824;5.644;2023-03-14T05:25:43;98197.19;;;10.60;81.12
36248;BME280;22287;50.824;5.644;2023-03-14T05:28:37;98190.50;;;10.99;80.06
36248;BME280;22287;50.824;5.644;2023-03-14T05:31:30;98192.19;;;10.57;81.41
36248;BME280;22287;50.824;5.644;2023-03-14T05:34:09;98183.63;;;10.54;82.49
36248;BME280;22287;50.824;5.644;2023-03-14T05:36:55;98190.66;;;10.34;83.30
36248;BME280;22287;50.824;5.644;2023-03-14T05:39:45;98195.38;;;10.11;84.02
36248;BME280;22287;50.824;5.644;2023-03-14T05:42:45;98195.91;;;10.06;84.72
36248;BME280;22287;50.824;5.644;2023-03-14T05:45:37;98192.03;;;10.44;82.93
36248;BME280;22287;50.824;5.644;2023-03-14T05:48:33;98201.31;;;10.21;83.90
36248;BME280;22287;50.824;5.644;2023-03-14T05:51:31;98193.72;;;10.45;83.27
36248;BME280;22287;50.824;5.644;2023-03-14T05:54:17;98195.03;;;10.71;81.16
36248;BME280;22287;50.824;5.644;2023-03-14T05:56:56;98196.81;;;10.28;83.46
36248;BME280;22287;50.824;5.644;2023-03-14T05:59:24;98199.25;;;10.23;84.02
36248;BME280;22287;50.824;5.644;2023-03-14T06:02:29;98193.69;;;9.95;85.93
36248;BME280;22287;50.824;5.644;2023-03-14T06:05:05;98194.81;;;10.15;86.17
36248;BME280;22287;50.824;5.644;2023-03-14T06:07:32;98195.91;;;10.35;83.39
36248;BME280;22287;50.824;5.644;2023-03-14T06:09:59;98201.06;;;10.16;84.68
36248;BME280;22287;50.824;5.644;2023-03-14T06:12:27;98194.47;;;10.39;83.55
36248;BME280;22287;50.824;5.644;2023-03-14T06:14:55;98197.59;;;10.07;84.76
36248;BME280;22287;50.824;5.644;2023-03-14T06:17:22;98188.50;;;9.93;85.18
36248;BME280;22287;50.824;5.644;2023-03-14T06:19:58;98201.81;;;10.45;84.00
36248;BME280;22287;50.824;5.644;2023-03-14T06:22:26;98190.75;;;10.83;81.66
36248;BME280;22287;50.824;5.644;2023-03-14T06:24:53;98188.69;;;10.63;82.72
36248;BME280;22287;50.824;5.644;2023-03-14T06:27:21;98192.31;;;10.71;82.66
36248;BME280;22287;50.824;5.644;2023-03-14T06:29:51;98196.41;;;10.67;82.86
36248;BME280;22287;50.824;5.644;2023-03-14T06:32:18;98200.28;;;10.57;82.81
36248;BME280;22287;50.824;5.644;2023-03-14T06:34:48;98203.28;;;10.48;83.68
36248;BME280;22287;50.824;5.644;2023-03-14T06:37:17;98205.19;;;10.69;82.96
36248;BME280;22287;50.824;5.644;2023-03-14T06:39:47;98204.53;;;10.88;81.91
36248;BME280;22287;50.824;5.644;2023-03-14T06:42:24;98206.72;;;10.78;82.30
36248;BME280;22287;50.824;5.644;2023-03-14T06:44:53;98206.53;;;11.00;81.15
36248;BME280;22287;50.824;5.644;2023-03-14T06:47:20;98204.09;;;10.63;82.89
36248;BME280;22287;50.824;5.644;2023-03-14T06:49:47;98205.69;;;10.79;82.32
36248;BME280;22287;50.824;5.644;2023-03-14T06:52:17;98205.03;;;10.98;81.19
36248;BME280;22287;50.824;5.644;2023-03-14T06:54:43;98211.53;;;11.03;81.10
36248;BME280;22287;50.824;5.644;2023-03-14T06:57:10;98220.47;;;10.83;82.46
36248;BME280;22287;50.824;5.644;2023-03-14T06:59:37;98223.50;;;10.94;81.71
36248;BME280;22287;50.824;5.644;2023-03-14T07:02:07;98220.25;;;10.99;81.18
36248;BME280;22287;50.824;5.644;2023-03-14T07:04:34;98227.09;;;11.23;80.12
36248;BME280;22287;50.824;5.644;2023-03-14T07:07:01;98220.28;;;11.05;80.87
36248;BME280;22287;50.824;5.644;2023-03-14T07:09:33;98232.38;;;11.09;81.33
36248;BME280;22287;50.824;5.644;2023-03-14T07:12:01;98239.00;;;11.07;81.18
36248;BME280;22287;50.824;5.644;2023-03-14T07:14:28;98231.63;;;11.15;81.43
36248;BME280;22287;50.824;5.644;2023-03-14T07:16:55;98237.44;;;11.19;81.37
36248;BME280;22287;50.824;5.644;2023-03-14T07:19:23;98240.53;;;11.16;81.24
36248;BME280;22287;50.824;5.644;2023-03-14T07:21:49;98245.03;;;11.30;80.31
36248;BME280;22287;50.824;5.644;2023-03-14T07:24:21;98254.88;;;11.38;81.15
36248;BME280;22287;50.824;5.644;2023-03-14T07:26:48;98249.81;;;11.28;81.32
36248;BME280;22287;50.824;5.644;2023-03-14T07:29:15;98254.97;;;11.23;81.61
36248;BME280;22287;50.824;5.644;2023-03-14T07:31:45;98259.09;;;11.47;80.92
36248;BME280;22287;50.824;5.644;2023-03-14T07:34:16;98265.91;;;11.15;82.12
36248;BME280;22287;50.824;5.644;2023-03-14T07:36:44;98255.97;;;11.22;81.87
36248;BME280;22287;50.824;5.644;2023-03-14T07:39:11;98267.31;;;11.32;82.22
36248;BME280;22287;50.824;5.644;2023-03-14T07:41:40;98276.31;;;10.97;83.41
36248;BME280;22287;50.824;5.644;2023-03-14T07:44:26;98285.66;;;10.94;84.68
36248;BME280;22287;50.824;5.644;2023-03-14T07:47:02;98297.91;;;10.76;84.84
36248;BME280;22287;50.824;5.644;2023-03-14T07:49:28;98296.47;;;10.58;85.78
36248;BME280;22287;50.824;5.644;2023-03-14T07:51:55;98292.81;;;10.66;85.27
36248;BME280;22287;50.824;5.644;2023-03-14T07:54:22;98301.00;;;10.94;84.72
36248;BME280;22287;50.824;5.644;2023-03-14T07:56:50;98307.84;;;10.90;84.68
36248;BME280;22287;50.824;5.644;2023-03-14T07:59:19;98310.94;;;11.08;84.09
36248;BME280;22287;50.824;5.644;2023-03-14T08:01:46;98302.56;;;11.24;82.89
36248;BME280;22287;50.824;5.644;2023-03-14T08:04:12;98302.91;;;11.14;82.96
36248;BME280;22287;50.824;5.644;2023-03-14T08:06:39;98312.31;;;11.40;82.33
36248;BME280;22287;50.824;5.644;2023-03-14T08:09:06;98320.09;;;11.07;83.92
36248;BME280;22287;50.824;5.644;2023-03-14T08:11:33;98327.06;;;11.37;82.79
36248;BME280;22287;50.824;5.644;2023-03-14T08:14:00;98337.06;;;11.22;83.08
36248;BME280;22287;50.824;5.644;2023-03-14T08:16:27;98340.53;;;11.16;84.07
36248;BME280;22287;50.824;5.644;2023-03-14T08:18:53;98416.78;;;10.76;85.71
36248;BME280;22287;50.824;5.644;2023-03-14T08:21:20;98424.06;;;9.94;82.79
36248;BME280;22287;50.824;5.644;2023-03-14T08:23:47;98443.19;;;9.62;82.04
36248;BME280;22287;50.824;5.644;2023-03-14T08:26:14;98444.28;;;9.53;82.38
36248;BME280;22287;50.824;5.644;2023-03-14T08:28:45;98458.16;;;9.41;82.98
36248;BME280;22287;50.824;5.644;2023-03-14T08:31:12;98461.63;;;9.27;82.56
36248;BME280;22287;50.824;5.644;2023-03-14T08:33:39;98482.38;;;9.19;82.30
36248;BME280;22287;50.824;5.644;2023-03-14T08:36:06;98486.84;;;8.96;81.83
36248;BME280;22287;50.824;5.644;2023-03-14T08:38:33;98503.31;;;9.01;82.30
36248;BME280;22287;50.824;5.644;2023-03-14T08:41:01;98514.03;;;8.78;82.47
36248;BME280;22287;50.824;5.644;2023-03-14T08:43:28;98515.84;;;8.85;82.81
36248;BME280;22287;50.824;5.644;2023-03-14T08:45:58;98525.31;;;9.20;81.22
36248;BME280;22287;50.824;5.644;2023-03-14T08:48:27;98529.44;;;9.00;81.44
36248;BME280;22287;50.824;5.644;2023-03-14T08:50:57;98550.38;;;9.29;80.40
36248;BME280;22287;50.824;5.644;2023-03-14T08:53:24;98573.25;;;8.86;81.52
36248;BME280;22287;50.824;5.644;2023-03-14T08:55:54;98576.34;;;9.22;79.98
36248;BME280;22287;50.824;5.644;2023-03-14T08:58:21;98587.75;;;8.77;80.67
36248;BME280;22287;50.824;5.644;2023-03-14T09:00:50;98605.25;;;8.73;80.88
36248;BME280;22287;50.824;5.644;2023-03-14T09:03:18;98616.38;;;8.38;81.91
36248;BME280;22287;50.824;5.644;2023-03-14T09:05:44;98627.66;;;8.41;82.51
36248;BME280;22287;50.824;5.644;2023-03-14T09:08:11;98627.81;;;8.40;81.92
36248;BME280;22287;50.824;5.644;2023-03-14T09:10:38;98638.94;;;8.61;80.03
36248;BME280;22287;50.824;5.644;2023-03-14T09:13:05;98659.09;;;8.57;80.68
36248;BME280;22287;50.824;5.644;2023-03-14T09:15:32;98674.59;;;8.55;81.16
36248;BME280;22287;50.824;5.644;2023-03-14T09:18:01;98680.63;;;8.73;79.87
36248;BME280;22287;50.824;5.644;2023-03-14T09:20:28;98688.75;;;8.89;79.74
36248;BME280;22287;50.824;5.644;2023-03-14T09:22:55;98701.50;;;8.87;78.94
36248;BME280;22287;50.824;5.644;2023-03-14T09:25:22;98705.91;;;8.72;80.53
36248;BME280;22287;50.824;5.644;2023-03-14T09:27:49;98722.41;;;8.77;79.72
36248;BME280;22287;50.824;5.644;2023-03-14T09:30:16;98726.78;;;8.78;79.23
36248;BME280;22287;50.824;5.644;2023-03-14T09:32:43;98738.03;;;8.90;78.39
36248;BME280;22287;50.824;5.644;2023-03-14T09:35:10;98735.00;;;8.93;79.24
36248;BME280;22287;50.824;5.644;2023-03-14T09:37:37;98758.06;;;8.79;80.12
36248;BME280;22287;50.824;5.644;2023-03-14T09:40:05;98758.44;;;9.00;78.54
36248;BME280;22287;50.824;5.644;2023-03-14T09:42:37;98776.28;;;8.93;79.18
36248;BME280;22287;50.824;5.644;2023-03-14T09:45:14;98775.25;;;9.18;78.19
36248;BME280;22287;50.824;5.644;2023-03-14T09:47:43;98783.34;;;8.94;78.66
36248;BME280;22287;50.824;5.644;2023-03-14T09:50:25;98793.09;;;9.43;77.01
36248;BME280;22287;50.824;5.644;2023-03-14T09:52:56;98793.78;;;9.29;77.89
36248;BME280;22287;50.824;5.644;2023-03-14T09:55:25;98808.09;;;9.54;75.89
36248;BME280;22287;50.824;5.644;2023-03-14T09:58:02;98810.81;;;9.30;77.06
36248;BME280;22287;50.824;5.644;2023-03-14T10:00:31;98816.88;;;9.08;76.34
36248;BME280;22287;50.824;5.644;2023-03-14T10:05:41;98847.69;;;9.13;77.85
36248;BME280;22287;50.824;5.644;2023-03-14T10:08:12;98858.94;;;9.09;76.90
36248;BME280;22287;50.824;5.644;2023-03-14T10:10:40;98871.59;;;9.08;76.82
36248;BME280;22287;50.824;5.644;2023-03-14T10:15:53;98879.41;;;8.69;77.50
36248;BME280;22287;50.824;5.644;2023-03-14T10:18:22;98892.41;;;8.82;77.25
36248;BME280;22287;50.824;5.644;2023-03-14T10:21:20;98899.19;;;9.02;76.76
36248;BME280;22287;50.824;5.644;2023-03-14T10:23:47;98902.53;;;8.88;76.98
36248;BME280;22287;50.824;5.644;2023-03-14T10:26:24;98918.06;;;9.02;76.29
36248;BME280;22287;50.824;5.644;2023-03-14T10:29:02;98928.38;;;8.73;76.74
36248;BME280;22287;50.824;5.644;2023-03-14T10:31:46;98935.00;;;8.86;76.41
36248;BME280;22287;50.824;5.644;2023-03-14T10:34:22;98953.41;;;8.99;75.71
36248;BME280;22287;50.824;5.644;2023-03-14T10:36:56;98960.50;;;8.58;75.93
36248;BME280;22287;50.824;5.644;2023-03-14T10:39:27;98975.72;;;8.24;79.08
36248;BME280;22287;50.824;5.644;2023-03-14T10:42:04;98975.06;;;8.81;76.71
36248;BME280;22287;50.824;5.644;2023-03-14T10:44:31;98985.84;;;8.90;76.24
36248;BME280;22287;50.824;5.644;2023-03-14T10:47:02;98986.09;;;8.70;76.20
36248;BME280;22287;50.824;5.644;2023-03-14T10:49:35;98996.66;;;8.56;76.52
36248;BME280;22287;50.824;5.644;2023-03-14T10:52:15;99002.81;;;8.74;76.02
36248;BME280;22287;50.824;5.644;2023-03-14T10:54:49;99016.03;;;8.93;75.16
36248;BME280;22287;50.824;5.644;2023-03-14T10:57:20;99020.53;;;8.84;75.51
36248;BME280;22287;50.824;5.644;2023-03-14T10:59:47;99028.03;;;8.73;76.81
36248;BME280;22287;50.824;5.644;2023-03-14T11:05:07;99050.25;;;9.09;75.41
36248;BME280;22287;50.824;5.644;2023-03-14T11:07:42;99062.53;;;8.44;77.13
36248;BME280;22287;50.824;5.644;2023-03-14T11:13:16;99074.88;;;8.54;78.05
36248;BME280;22287;50.824;5.644;2023-03-14T11:18:57;99109.47;;;8.67;77.33
36248;BME280;22287;50.824;5.644;2023-03-14T11:21:46;99111.78;;;8.62;77.24
36248;BME280;22287;50.824;5.644;2023-03-14T11:27:03;99120.78;;;8.17;79.65
36248;BME280;22287;50.824;5.644;2023-03-14T11:32:13;99145.97;;;8.44;78.53
36248;BME280;22287;50.824;5.644;2023-03-14T11:35:00;99146.88;;;8.17;79.93
36248;BME280;22287;50.824;5.644;2023-03-14T11:37:34;99145.44;;;8.40;77.81
36248;BME280;22287;50.824;5.644;2023-03-14T11:40:17;99151.41;;;8.69;77.80
36248;BME280;22287;50.824;5.644;2023-03-14T11:42:50;99160.03;;;8.55;77.93
36248;BME280;22287;50.824;5.644;2023-03-14T11:45:22;99168.50;;;8.43;78.90
36248;BME280;22287;50.824;5.644;2023-03-14T11:48:01;99173.94;;;8.51;78.89
36248;BME280;22287;50.824;5.644;2023-03-14T11:50:30;99180.03;;;8.96;79.26
36248;BME280;22287;50.824;5.644;2023-03-14T11:53:11;99190.28;;;9.18;78.14
36248;BME280;22287;50.824;5.644;2023-03-14T11:55:42;99188.81;;;8.98;77.99
36248;BME280;22287;50.824;5.644;2023-03-14T12:00:40;99208.53;;;8.81;78.91
36248;BME280;22287;50.824;5.644;2023-03-14T12:03:31;99219.31;;;9.24;75.13
36248;BME280;22287;50.824;5.644;2023-03-14T12:06:24;99230.97;;;8.46;76.97
36248;BME280;22287;50.824;5.644;2023-03-14T12:08:58;99241.09;;;8.70;76.25
36248;BME280;22287;50.824;5.644;2023-03-14T12:13:59;99289.44;;;8.71;74.55
36248;BME280;22287;50.824;5.644;2023-03-14T12:16:32;99288.16;;;8.31;73.99
36248;BME280;22287;50.824;5.644;2023-03-14T12:19:36;99287.75;;;7.61;75.17
36248;BME280;22287;50.824;5.644;2023-03-14T12:22:31;99301.09;;;7.44;76.22
36248;BME280;22287;50.824;5.644;2023-03-14T12:28:20;99296.91;;;7.78;77.58
36248;BME280;22287;50.824;5.644;2023-03-14T12:30:47;99292.97;;;7.73;78.38
36248;BME280;22287;50.824;5.644;2023-03-14T12:35:51;99297.00;;;8.13;78.75
36248;BME280;22287;50.824;5.644;2023-03-14T12:38:45;99290.13;;;8.91;77.29
36248;BME280;22287;50.824;5.644;2023-03-14T12:43:45;99306.28;;;8.73;78.79
36248;BME280;22287;50.824;5.644;2023-03-14T12:48:47;99316.91;;;8.93;76.30
36248;BME280;22287;50.824;5.644;2023-03-14T12:51:20;99338.91;;;8.70;76.63
36248;BME280;22287;50.824;5.644;2023-03-14T12:56:50;99354.13;;;8.62;76.97
36248;BME280;22287;50.824;5.644;2023-03-14T12:59:28;99362.09;;;8.26;78.05
36248;BME280;22287;50.824;5.644;2023-03-14T13:05:23;99364.97;;;8.52;76.48
36248;BME280;22287;50.824;5.644;2023-03-14T13:10:23;99382.13;;;8.14;76.82
36248;BME280;22287;50.824;5.644;2023-03-14T13:12:52;99382.34;;;7.94;78.15
36248;BME280;22287;50.824;5.644;2023-03-14T13:17:54;99403.75;;;8.59;75.86
36248;BME280;22287;50.824;5.644;2023-03-14T13:20:35;99416.38;;;8.86;74.59
36248;BME280;22287;50.824;5.644;2023-03-14T13:23:03;99434.13;;;8.52;74.47
36248;BME280;22287;50.824;5.644;2023-03-14T13:25:32;99464.53;;;8.62;72.20
36248;BME280;22287;50.824;5.644;2023-03-14T13:28:01;99463.19;;;7.83;75.27
36248;BME280;22287;50.824;5.644;2023-03-14T13:30:40;99463.25;;;8.19;71.86
36248;BME280;22287;50.824;5.644;2023-03-14T13:33:13;99459.53;;;7.84;73.40
36248;BME280;22287;50.824;5.644;2023-03-14T13:35:43;99472.53;;;7.59;74.28
36248;BME280;22287;50.824;5.644;2023-03-14T13:38:21;99471.66;;;7.88;73.96
36248;BME280;22287;50.824;5.644;2023-03-14T13:40:50;99481.28;;;8.00;73.64
36248;BME280;22287;50.824;5.644;2023-03-14T13:43:41;99482.69;;;8.04;74.40
36248;BME280;22287;50.824;5.644;2023-03-14T13:46:15;99479.19;;;7.75;75.44
36248;BME280;22287;50.824;5.644;2023-03-14T13:48:45;99484.78;;;8.19;74.26
36248;BME280;22287;50.824;5.644;2023-03-14T13:51:16;99489.16;;;8.20;73.95
36248;BME280;22287;50.824;5.644;2023-03-14T13:53:52;99500.75;;;8.77;72.64
36248;BME280;22287;50.824;5.644;2023-03-14T13:56:22;99516.91;;;8.50;72.88
36248;BME280;22287;50.824;5.644;2023-03-14T13:58:49;99521.25;;;8.51;73.44
36248;BME280;22287;50.824;5.644;2023-03-14T14:01:29;99531.22;;;8.21;74.81
36248;BME280;22287;50.824;5.644;2023-03-14T14:04:23;99536.63;;;8.21;74.58
36248;BME280;22287;50.824;5.644;2023-03-14T14:06:52;99541.88;;;8.04;72.64
36248;BME280;22287;50.824;5.644;2023-03-14T14:09:21;99546.09;;;7.30;75.40
36248;BME280;22287;50.824;5.644;2023-03-14T14:14:48;99563.41;;;7.94;76.22
36248;BME280;22287;50.824;5.644;2023-03-14T14:17:27;99568.34;;;7.99;74.78
36248;BME280;22287;50.824;5.644;2023-03-14T14:19:55;99574.75;;;7.79;75.64
36248;BME280;22287;50.824;5.644;2023-03-14T14:22:23;99583.06;;;7.56;77.24
36248;BME280;22287;50.824;5.644;2023-03-14T14:24:51;99582.94;;;7.67;76.13
36248;BME280;22287;50.824;5.644;2023-03-14T14:32:48;99606.31;;;7.86;76.35